KTBN/TBN METAR and TAF weather

Enter ICAO airport designator
Station Type Date Time Source
KTBN METAR 2019/07/20 04:56 UTC NOAA

KTBN 200456Z AUTO 18005KT 10SM CLR 26/22 A2994 RMK AO2 SLP127 T02590222


Station Type Date Time Source
KTBN Decoded METAR 2019/07/20 04:56 UTC NOAA

Fort Leonard Wood, MO, United States (KTBN) 37-44N 092-08W
Jul 20, 2019 - 12:56 AM EDT / 2019.07.20 0456 UTC
Wind: from the S (180 degrees) at 6 MPH (5 KT):0
Visibility: 10 mile(s):0
Sky conditions: clear
Temperature: 78.6 F (25.9 C)
Dew Point: 72.0 F (22.2 C)
Relative Humidity: 80%
Pressure (altimeter): 29.94 in. Hg (1013 hPa)
ob: KTBN 200456Z AUTO 18005KT 10SM CLR 26/22 A2994 RMK AO2 SLP127 T02590222
cycle: 5

Station Type Date Time Source
KTBN TAF UTC NOAA

Error!

Example: see airport list